KDMO

Sedalia Regional Airport

Sedalia, Missouri, USA
METAR KDMO 211253Z AUTO 36014KT 10SM FEW013 M05/M07 A3051 RMK AO2 SLP344 T10501067
Observed Flight Rules
Feb-21 @ 12:53 UTC (27 minutes ago) Visual Flight Rules
Wind Visibility Clouds
360° at 14 knots 10 miles
  • Few at 1,300' AGL
Temperatures Readings
Current -5°C / 23°F
Dewpoint -7°C / 19°F
Humidity 86%
Altimeter 30.51" Hg
Pressure 1034.4 hPa
Elevation 274
METAR KDMO 211253Z AUTO 36014KT 10SM FEW013 M05/M07 A3051 RMK AO2 SLP344 T10501067
Observed Flight Rules
Feb-21 @ 12:53 UTC
(27 minutes ago)
VFR
Wind Visibility
360° at 14 knots 10 miles
Clouds
  • Few at 1,300' AGL
Temperature Dewpoint
-5°C / 23°F -7°C / 19°F
Humidity Altimeter Pressure
86% 30.51" Hg 1034.4 hPa